Time;durP1;ratioP1;P1;durP2;ratioP2;P2;SDS_P1;SDS_P2;PMS_P1;PMS_P2;Temp;Humidity;BMP_temperature;BMP_pressure;BME280_temperature;BME280_humidity;BME280_pressure;Samples;Min_cycle;Max_cycle;Signal;HPM_P1;HPM_P2
2022/04/06 00:01:23;;;;;;;81.87;73.97;;;;;;;;;;5013679;28;20428;-62
2022/04/06 00:03:49;;;;;;;87.93;78.47;;;;;;;;;;5014039;28;20432;-62
2022/04/06 00:06:15;;;;;;;84.13;75.47;;;;;;;;;;5013775;28;20468;-62
2022/04/06 00:08:41;;;;;;;82.87;74.07;;;;;;;;;;5013977;28;20539;-62
2022/04/06 00:11:08;;;;;;;85.25;76.15;;;;;;;;;;5013525;28;20427;-62
2022/04/06 00:13:34;;;;;;;79.18;71.88;;;;;;;;;;5013894;28;20197;-62
2022/04/06 00:16:01;;;;;;;83.63;75.90;;;;;;;;;;5013639;28;20181;-62
2022/04/06 00:18:27;;;;;;;87.15;77.40;;;;;;;;;;5013827;28;20417;-62
2022/04/06 00:20:53;;;;;;;85.17;76.07;;;;;;;;;;5013352;28;20885;-62
2022/04/06 00:23:19;;;;;;;90.27;80.87;;;;;;;;;;5013752;28;20507;-62
2022/04/06 00:25:45;;;;;;;87.87;78.60;;;;;;;;;;5013652;28;20487;-62
2022/04/06 00:28:11;;;;;;;86.67;77.87;;;;;;;;;;5012669;28;20499;-62
2022/04/06 00:30:37;;;;;;;83.90;75.70;;;;;;;;;;5014099;28;20416;-62
2022/04/06 00:33:03;;;;;;;86.03;77.37;;;;;;;;;;5013990;28;20209;-62
2022/04/06 00:35:29;;;;;;;91.30;81.30;;;;;;;;;;5013915;28;20485;-62
2022/04/06 00:37:58;;;;;;;85.03;76.53;;;;;;;;;;5014192;28;20428;-62
2022/04/06 00:40:24;;;;;;;81.95;75.10;;;;;;;;;;5013679;28;20829;-62
2022/04/06 00:42:51;;;;;;;69.57;63.88;;;;;;;;;;5013974;28;20190;-62
2022/04/06 00:45:17;;;;;;;77.05;71.03;;;;;;;;;;5013427;28;20197;-62
2022/04/06 00:47:43;;;;;;;87.97;79.07;;;;;;;;;;5013219;28;20170;-62
2022/04/06 00:50:09;;;;;;;88.15;79.30;;;;;;;;;;5013020;28;20601;-61
2022/04/06 00:52:36;;;;;;;89.07;79.78;;;;;;;;;;5012979;28;20276;-61
2022/04/06 00:55:02;;;;;;;91.82;81.55;;;;;;;;;;5013289;28;20220;-62
2022/04/06 00:57:28;;;;;;;85.10;76.10;;;;;;;;;;5013059;28;20174;-62
2022/04/06 00:59:58;;;;;;;84.70;75.50;;;;;;;;;;5012968;28;20204;-62
2022/04/06 01:02:24;;;;;;;90.43;80.60;;;;;;;;;;5012842;28;20685;-61
2022/04/06 01:04:50;;;;;;;86.32;77.57;;;;;;;;;;5012845;28;20181;-62
2022/04/06 01:07:16;;;;;;;94.70;77.00;;;;;;;;;;5012839;28;20215;-62
2022/04/06 01:09:42;;;;;;;98.83;83.37;;;;;;;;;;5012303;28;20412;-62
2022/04/06 01:12:08;;;;;;;97.70;81.57;;;;;;;;;;5012494;28;20475;-61
2022/04/06 01:14:34;;;;;;;93.60;82.03;;;;;;;;;;5012685;28;20904;-61
2022/04/06 01:17:00;;;;;;;99.40;81.97;;;;;;;;;;5012585;28;20186;-61
2022/04/06 01:19:33;;;;;;;90.70;79.20;;;;;;;;;;5012516;28;20408;-61
2022/04/06 01:21:59;;;;;;;97.30;81.35;;;;;;;;;;5012310;28;20197;-62
2022/04/06 01:24:25;;;;;;;90.22;79.30;;;;;;;;;;5012537;28;20173;-61
2022/04/06 01:26:52;;;;;;;93.95;80.53;;;;;;;;;;5012447;28;20252;-61
2022/04/06 01:29:18;;;;;;;94.25;82.43;;;;;;;;;;5012482;28;20204;-61
2022/04/06 01:31:44;;;;;;;94.60;83.37;;;;;;;;;;5011916;28;20201;-61
2022/04/06 01:34:10;;;;;;;89.47;79.57;;;;;;;;;;5012367;28;20408;-62
2022/04/06 01:36:35;;;;;;;96.00;80.87;;;;;;;;;;5011878;28;20472;-62
2022/04/06 01:39:01;;;;;;;96.50;84.33;;;;;;;;;;5011859;28;20437;-60
2022/04/06 01:41:32;;;;;;;93.70;80.57;;;;;;;;;;5011832;28;20439;-62
2022/04/06 01:43:57;;;;;;;91.70;80.68;;;;;;;;;;5012270;28;20503;-61
2022/04/06 01:46:23;;;;;;;91.80;81.80;;;;;;;;;;5011981;28;20292;-61
2022/04/06 01:54:22;;;;;;;92.47;81.90;;;;;;;;;;5012407;28;20544;-61
2022/04/06 01:56:48;;;;;;;101.57;82.97;;;;;;;;;;5011979;28;20173;-61
2022/04/06 01:59:14;;;;;;;103.23;88.47;;;;;;;;;;5012012;28;20912;-61
2022/04/06 02:01:40;;;;;;;93.00;82.72;;;;;;;;;;5011599;28;20436;-61
2022/04/06 02:04:16;;;;;;;88.83;79.27;;;;;;;;;;5011836;28;20193;-61
2022/04/06 02:06:42;;;;;;;98.60;82.20;;;;;;;;;;5011815;28;20514;-61
2022/04/06 02:09:08;;;;;;;90.40;77.57;;;;;;;;;;5011792;28;20173;-61
2022/04/06 02:11:35;;;;;;;91.88;79.78;;;;;;;;;;5011698;28;20197;-62
2022/04/06 02:14:01;;;;;;;101.63;83.25;;;;;;;;;;5011873;28;20547;-62
2022/04/06 02:16:28;;;;;;;89.97;79.97;;;;;;;;;;5011810;28;20180;-62
2022/04/06 02:18:53;;;;;;;93.95;82.50;;;;;;;;;;5011625;28;20459;-62
2022/04/06 02:21:19;;;;;;;93.80;82.50;;;;;;;;;;5011461;28;20194;-62
2022/04/06 02:23:45;;;;;;;94.50;82.57;;;;;;;;;;5011650;28;20900;-62
2022/04/06 02:26:12;;;;;;;90.57;80.00;;;;;;;;;;5011687;28;20452;-62
2022/04/06 02:28:37;;;;;;;96.05;85.05;;;;;;;;;;5010358;28;20428;-62
2022/04/06 02:31:03;;;;;;;89.87;80.37;;;;;;;;;;5011256;28;20256;-62
2022/04/06 02:33:29;;;;;;;91.70;81.47;;;;;;;;;;5011577;28;20419;-62
2022/04/06 02:35:55;;;;;;;89.50;79.70;;;;;;;;;;5011611;28;20500;-62
2022/04/06 02:38:21;;;;;;;90.23;80.00;;;;;;;;;;5011515;28;20911;-62
2022/04/06 02:40:47;;;;;;;96.23;83.93;;;;;;;;;;5011331;28;20411;-62
2022/04/06 02:43:13;;;;;;;96.33;84.90;;;;;;;;;;5011458;28;20459;-62
2022/04/06 02:45:39;;;;;;;92.57;82.67;;;;;;;;;;5011433;28;20502;-62
2022/04/06 02:48:05;;;;;;;90.43;80.50;;;;;;;;;;5011462;28;20948;-62
2022/04/06 02:50:32;;;;;;;93.75;83.65;;;;;;;;;;5011145;28;20178;-62
2022/04/06 02:52:58;;;;;;;85.18;76.53;;;;;;;;;;5015544;28;20197;-62
2022/04/06 02:55:24;;;;;;;88.80;79.50;;;;;;;;;;5015401;28;20541;-62
2022/04/06 02:57:50;;;;;;;86.57;77.87;;;;;;;;;;5015335;28;20173;-62
2022/04/06 03:00:16;;;;;;;91.37;82.50;;;;;;;;;;5015004;28;20405;-62
2022/04/06 03:02:42;;;;;;;92.50;82.80;;;;;;;;;;5015080;28;20570;-62
2022/04/06 03:05:08;;;;;;;86.00;77.60;;;;;;;;;;5015354;28;20250;-62
2022/04/06 03:07:34;;;;;;;88.03;78.63;;;;;;;;;;5014990;28;20227;-62
2022/04/06 03:10:04;;;;;;;88.47;79.07;;;;;;;;;;5015052;28;20219;-62
2022/04/06 03:12:29;;;;;;;83.90;75.95;;;;;;;;;;5014811;28;20432;-62
2022/04/06 03:14:55;;;;;;;90.43;81.03;;;;;;;;;;5015006;28;20180;-62
2022/04/06 03:17:21;;;;;;;89.97;80.83;;;;;;;;;;5014869;28;20408;-62
2022/04/06 03:19:47;;;;;;;89.40;79.63;;;;;;;;;;5014842;28;20780;-62
2022/04/06 03:22:17;;;;;;;89.23;79.73;;;;;;;;;;5014517;28;20999;-62
2022/04/06 03:24:49;;;;;;;80.47;73.32;;;;;;;;;;5014838;28;20412;-62
2022/04/06 03:27:15;;;;;;;82.20;74.70;;;;;;;;;;5014655;28;20274;-62
2022/04/06 03:29:41;;;;;;;82.40;75.00;;;;;;;;;;5014768;28;20174;-62
2022/04/06 03:32:08;;;;;;;81.37;73.80;;;;;;;;;;5014449;28;20478;-61
2022/04/06 03:34:34;;;;;;;85.82;78.32;;;;;;;;;;5014812;28;20423;-62
2022/04/06 03:37:00;;;;;;;81.37;73.87;;;;;;;;;;5015089;28;20174;-62
2022/04/06 03:39:26;;;;;;;91.50;77.20;;;;;;;;;;5014908;28;20471;-62
2022/04/06 03:41:52;;;;;;;99.87;80.63;;;;;;;;;;5014645;28;20428;-62
2022/04/06 03:44:18;;;;;;;96.70;81.07;;;;;;;;;;5014565;28;20440;-62
2022/04/06 03:46:44;;;;;;;99.93;81.57;;;;;;;;;;5014305;28;20498;-62
2022/04/06 03:49:10;;;;;;;95.67;77.07;;;;;;;;;;5014269;28;20421;-62
2022/04/06 03:51:36;;;;;;;96.20;77.57;;;;;;;;;;5014019;28;20425;-61
2022/04/06 03:54:03;;;;;;;109.18;84.47;;;;;;;;;;5014321;28;20412;-62
2022/04/06 03:56:29;;;;;;;76.80;69.50;;;;;;;;;;5014322;28;20239;-62
2022/04/06 03:58:55;;;;;;;79.87;72.47;;;;;;;;;;5014186;28;20581;-62
2022/04/06 04:01:21;;;;;;;73.28;66.68;;;;;;;;;;5013765;28;20838;-61
2022/04/06 04:03:46;;;;;;;87.63;79.25;;;;;;;;;;5013934;28;20641;-62
2022/04/06 04:06:12;;;;;;;82.50;74.87;;;;;;;;;;5013951;28;20212;-62
2022/04/06 04:08:39;;;;;;;82.70;74.60;;;;;;;;;;5014006;28;20859;-62
2022/04/06 04:11:05;;;;;;;72.80;66.40;;;;;;;;;;5013725;28;20396;-62
2022/04/06 04:13:31;;;;;;;78.13;71.43;;;;;;;;;;5013935;28;20166;-62
2022/04/06 04:15:58;;;;;;;72.50;65.87;;;;;;;;;;5013830;28;20180;-62
2022/04/06 04:18:24;;;;;;;80.35;73.15;;;;;;;;;;5013725;28;20417;-62
2022/04/06 04:20:50;;;;;;;79.13;71.87;;;;;;;;;;5013476;28;20234;-62
2022/04/06 04:23:16;;;;;;;81.57;73.97;;;;;;;;;;5013718;28;20417;-62
2022/04/06 04:25:42;;;;;;;84.63;76.63;;;;;;;;;;5013593;28;20540;-62
2022/04/06 04:28:08;;;;;;;86.03;77.73;;;;;;;;;;5013662;28;20201;-62
2022/04/06 04:30:34;;;;;;;80.00;72.40;;;;;;;;;;5013202;28;20415;-62
2022/04/06 04:33:00;;;;;;;76.20;69.50;;;;;;;;;;5027645;22;20524;-61
2022/04/06 04:35:26;;;;;;;79.63;72.32;;;;;;;;;;4995061;28;20182;-59
2022/04/06 04:37:52;;;;;;;82.50;74.97;;;;;;;;;;4996082;28;20177;-59
2022/04/06 04:40:20;;;;;;;91.37;82.87;;;;;;;;;;4993523;28;20261;-60
2022/04/06 04:42:46;;;;;;;78.50;71.30;;;;;;;;;;4996986;28;20477;-60
2022/04/06 04:45:12;;;;;;;82.03;74.93;;;;;;;;;;4993568;28;20198;-59
2022/04/06 04:47:40;;;;;;;77.95;71.05;;;;;;;;;;5000237;28;20495;-61
2022/04/06 04:50:06;;;;;;;90.47;81.28;;;;;;;;;;4993780;28;20198;-60
2022/04/06 04:52:32;;;;;;;87.72;78.82;;;;;;;;;;4993444;28;20194;-61
2022/04/06 04:54:58;;;;;;;89.00;79.97;;;;;;;;;;4993436;28;20256;-62
2022/04/06 04:57:24;;;;;;;91.40;81.90;;;;;;;;;;4993474;28;20405;-61
2022/04/06 04:59:52;;;;;;;89.70;80.18;;;;;;;;;;4993313;28;20460;-61
2022/04/06 05:02:18;;;;;;;82.75;74.65;;;;;;;;;;4993060;28;20346;-60
2022/04/06 05:04:44;;;;;;;94.35;84.63;;;;;;;;;;4993246;28;20197;-59
2022/04/06 05:07:10;;;;;;;93.00;82.95;;;;;;;;;;4998587;28;20217;-61
2022/04/06 05:09:36;;;;;;;90.77;80.77;;;;;;;;;;4993046;28;20174;-61
2022/04/06 05:12:02;;;;;;;103.57;87.30;;;;;;;;;;4996503;28;20967;-58
2022/04/06 05:14:28;;;;;;;84.10;76.55;;;;;;;;;;4992473;28;20662;-58
2022/04/06 05:16:54;;;;;;;78.13;71.53;;;;;;;;;;4993105;28;20178;-61
2022/04/06 05:19:20;;;;;;;80.00;73.30;;;;;;;;;;4992864;28;20417;-60
2022/04/06 05:21:46;;;;;;;83.10;75.60;;;;;;;;;;4995513;28;20185;-60
2022/04/06 05:24:12;;;;;;;82.13;74.93;;;;;;;;;;4992837;28;20418;-61
2022/04/06 05:26:38;;;;;;;71.60;65.70;;;;;;;;;;4992976;28;20558;-60
2022/04/06 05:29:04;;;;;;;83.27;75.77;;;;;;;;;;4992890;28;20409;-60
2022/04/06 05:31:30;;;;;;;101.63;84.50;;;;;;;;;;4996160;28;20920;-60
2022/04/06 05:33:56;;;;;;;109.60;88.97;;;;;;;;;;5000333;28;20449;-60
2022/04/06 05:36:24;;;;;;;98.70;80.47;;;;;;;;;;4992650;28;20480;-59
2022/04/06 05:38:50;;;;;;;92.57;81.63;;;;;;;;;;4992553;28;20410;-57
2022/04/06 05:41:16;;;;;;;92.13;82.43;;;;;;;;;;4992437;28;20183;-61
2022/04/06 05:43:42;;;;;;;93.27;83.17;;;;;;;;;;4992550;28;20269;-61
2022/04/06 05:46:08;;;;;;;73.78;67.68;;;;;;;;;;4992522;28;20456;-60
2022/04/06 05:48:34;;;;;;;92.80;83.40;;;;;;;;;;4992539;28;20225;-60
2022/04/06 05:51:02;;;;;;;94.87;84.67;;;;;;;;;;4992218;28;20417;-60
2022/04/06 05:53:28;;;;;;;96.30;86.68;;;;;;;;;;4992267;28;20465;-61
2022/04/06 05:55:54;;;;;;;94.22;84.13;;;;;;;;;;4992597;28;20559;-61
2022/04/06 05:58:20;;;;;;;93.80;84.30;;;;;;;;;;4992421;28;20170;-61
2022/04/06 06:00:46;;;;;;;94.80;85.20;;;;;;;;;;4992135;28;20445;-60
2022/04/06 06:03:12;;;;;;;96.05;86.35;;;;;;;;;;4992206;28;20426;-61
2022/04/06 06:05:38;;;;;;;94.15;84.55;;;;;;;;;;4992110;28;20210;-60
2022/04/06 06:08:04;;;;;;;98.93;88.17;;;;;;;;;;4992214;28;20557;-60
2022/04/06 06:10:31;;;;;;;92.72;81.90;;;;;;;;;;4992079;28;20414;-60
2022/04/06 06:12:58;;;;;;;95.45;83.80;;;;;;;;;;4992130;28;20182;-60
2022/04/06 06:15:24;;;;;;;102.18;85.15;;;;;;;;;;4992259;28;20177;-58
2022/04/06 06:17:51;;;;;;;95.37;80.37;;;;;;;;;;4992176;28;20654;-60
2022/04/06 06:20:17;;;;;;;103.43;91.28;;;;;;;;;;4991973;28;21087;-60
2022/04/06 06:22:43;;;;;;;101.30;84.13;;;;;;;;;;4992047;28;20270;-59
2022/04/06 06:25:09;;;;;;;96.10;80.97;;;;;;;;;;4992042;28;20414;-59
2022/04/06 06:27:39;;;;;;;96.32;82.05;;;;;;;;;;4991726;28;20460;-59
2022/04/06 06:30:05;;;;;;;98.57;85.60;;;;;;;;;;4992128;28;20185;-60
2022/04/06 06:32:31;;;;;;;101.75;82.00;;;;;;;;;;4992008;28;20613;-60
2022/04/06 06:34:57;;;;;;;87.30;77.80;;;;;;;;;;4992106;28;20182;-59
2022/04/06 06:37:23;;;;;;;86.63;78.00;;;;;;;;;;4992540;28;20453;-57
2022/04/06 06:39:52;;;;;;;83.57;74.67;;;;;;;;;;4992097;28;20468;-60
2022/04/06 06:42:18;;;;;;;91.80;81.75;;;;;;;;;;4991814;28;20437;-60
2022/04/06 06:44:44;;;;;;;91.67;81.97;;;;;;;;;;4992308;28;20178;-60
2022/04/06 06:47:10;;;;;;;95.90;85.60;;;;;;;;;;4991896;28;20465;-59
2022/04/06 06:49:36;;;;;;;96.07;83.10;;;;;;;;;;5002062;28;20487;-60
2022/04/06 06:52:02;;;;;;;91.13;81.30;;;;;;;;;;4996409;28;20793;-60
2022/04/06 06:54:28;;;;;;;105.27;86.17;;;;;;;;;;4995558;28;20417;-59
2022/04/06 06:56:54;;;;;;;98.90;88.07;;;;;;;;;;4992563;28;20472;-59
2022/04/06 06:59:20;;;;;;;94.00;84.47;;;;;;;;;;4991439;28;20468;-59
2022/04/06 07:01:46;;;;;;;95.13;85.90;;;;;;;;;;4991440;28;20413;-59
2022/04/06 07:04:12;;;;;;;72.17;66.77;;;;;;;;;;4991406;28;20190;-58
2022/04/06 07:06:38;;;;;;;78.27;72.10;;;;;;;;;;4989938;28;20461;-60
2022/04/06 07:09:04;;;;;;;71.40;66.25;;;;;;;;;;4996107;28;21292;-58
2022/04/06 07:11:30;;;;;;;79.03;73.47;;;;;;;;;;4990704;28;20179;-60
2022/04/06 07:13:56;;;;;;;88.70;81.97;;;;;;;;;;4990970;28;20512;-60
2022/04/06 07:16:22;;;;;;;84.15;77.85;;;;;;;;;;4991141;28;20410;-59
2022/04/06 07:18:48;;;;;;;86.70;80.30;;;;;;;;;;4991158;28;20181;-58
2022/04/06 07:21:14;;;;;;;85.45;79.32;;;;;;;;;;4989434;28;20463;-61
2022/04/06 07:23:41;;;;;;;99.13;90.13;;;;;;;;;;4990906;28;20289;-60
2022/04/06 07:26:06;;;;;;;98.72;89.43;;;;;;;;;;4993544;28;20548;-59
2022/04/06 07:28:32;;;;;;;102.13;92.07;;;;;;;;;;4991592;28;20309;-60
2022/04/06 07:30:59;;;;;;;106.40;95.27;;;;;;;;;;4990790;28;20433;-58
2022/04/06 07:33:25;;;;;;;111.53;100.53;;;;;;;;;;4990535;28;20452;-58
2022/04/06 07:35:51;;;;;;;108.95;98.35;;;;;;;;;;4990634;28;20206;-60
2022/04/06 07:38:18;;;;;;;100.15;91.30;;;;;;;;;;4993290;28;20269;-58
2022/04/06 07:40:44;;;;;;;109.72;99.28;;;;;;;;;;4992819;28;20189;-60
2022/04/06 07:43:11;;;;;;;112.95;101.15;;;;;;;;;;4993654;28;20229;-59
2022/04/06 07:45:37;;;;;;;113.03;102.53;;;;;;;;;;4993690;28;20919;-60
2022/04/06 07:48:06;;;;;;;111.50;101.57;;;;;;;;;;4994134;28;20270;-59
2022/04/06 07:50:32;;;;;;;116.40;105.75;;;;;;;;;;4993888;28;20187;-60
2022/04/06 07:52:58;;;;;;;115.00;104.40;;;;;;;;;;4993909;28;20187;-59
2022/04/06 07:55:24;;;;;;;128.27;115.97;;;;;;;;;;4993900;28;20166;-53
2022/04/06 07:57:50;;;;;;;115.07;105.17;;;;;;;;;;4993851;28;20197;-60
2022/04/06 08:00:17;;;;;;;123.10;112.30;;;;;;;;;;4993702;28;20459;-57
2022/04/06 08:02:44;;;;;;;118.43;107.88;;;;;;;;;;4993554;28;20437;-60
2022/04/06 08:05:10;;;;;;;113.10;103.90;;;;;;;;;;4993926;28;20173;-58
2022/04/06 08:07:39;;;;;;;116.38;107.78;;;;;;;;;;4993340;28;20678;-59
2022/04/06 08:10:07;;;;;;;125.47;114.93;;;;;;;;;;4993859;28;20257;-60
2022/04/06 08:12:33;;;;;;;131.88;120.15;;;;;;;;;;4993944;28;20186;-60
2022/04/06 08:14:59;;;;;;;124.67;114.70;;;;;;;;;;4994798;28;20595;-60
2022/04/06 08:17:25;;;;;;;130.90;121.25;;;;;;;;;;4999472;28;20829;-53
2022/04/06 08:19:51;;;;;;;127.93;118.43;;;;;;;;;;4993966;28;20178;-55
2022/04/06 08:22:17;;;;;;;131.07;120.18;;;;;;;;;;4992808;28;20222;-59
2022/04/06 08:24:43;;;;;;;133.73;122.33;;;;;;;;;;4994252;28;20205;-59
2022/04/06 08:27:09;;;;;;;128.68;118.38;;;;;;;;;;4996454;28;20457;-58
2022/04/06 08:29:35;;;;;;;129.23;118.67;;;;;;;;;;4993568;28;20229;-58
2022/04/06 08:32:01;;;;;;;122.80;113.50;;;;;;;;;;4993340;28;20416;-60
2022/04/06 08:34:27;;;;;;;125.73;114.80;;;;;;;;;;4993930;28;20409;-59
2022/04/06 08:36:53;;;;;;;130.67;118.87;;;;;;;;;;4993503;28;20414;-60
2022/04/06 08:39:19;;;;;;;132.53;120.77;;;;;;;;;;4993563;28;20424;-59
2022/04/06 08:41:45;;;;;;;140.73;127.87;;;;;;;;;;4992927;28;20620;-60
2022/04/06 08:44:11;;;;;;;138.77;126.57;;;;;;;;;;4993560;28;20449;-60
2022/04/06 08:46:38;;;;;;;140.73;128.93;;;;;;;;;;4992240;28;20519;-60
2022/04/06 08:49:04;;;;;;;148.38;135.38;;;;;;;;;;4992307;28;20533;-60
2022/04/06 08:51:32;;;;;;;148.90;136.55;;;;;;;;;;4992157;28;20189;-60
2022/04/06 08:53:58;;;;;;;157.63;144.15;;;;;;;;;;4991290;28;20217;-60
2022/04/06 08:56:24;;;;;;;155.80;142.70;;;;;;;;;;4992707;28;20212;-59
2022/04/06 08:58:50;;;;;;;146.82;134.70;;;;;;;;;;4993804;28;20182;-60
2022/04/06 09:01:18;;;;;;;141.77;130.52;;;;;;;;;;4993905;28;20182;-60
2022/04/06 09:03:44;;;;;;;146.50;134.63;;;;;;;;;;4999975;28;20681;-59
2022/04/06 09:06:11;;;;;;;151.02;139.35;;;;;;;;;;4993335;28;20259;-61
2022/04/06 09:08:41;;;;;;;167.23;154.30;;;;;;;;;;4993355;28;20178;-60
2022/04/06 09:11:08;;;;;;;172.57;159.80;;;;;;;;;;4993106;28;20193;-59
2022/04/06 09:13:35;;;;;;;182.27;167.88;;;;;;;;;;4993104;28;20429;-61
2022/04/06 09:16:01;;;;;;;212.10;195.57;;;;;;;;;;4993307;28;20230;-61
2022/04/06 09:18:38;;;;;;;233.77;217.73;;;;;;;;;;4993250;28;20401;-61
2022/04/06 09:21:04;;;;;;;240.57;223.97;;;;;;;;;;4992980;28;20410;-61
2022/04/06 09:23:31;;;;;;;255.37;237.77;;;;;;;;;;4992924;28;20425;-61
2022/04/06 09:26:03;;;;;;;255.17;237.87;;;;;;;;;;4992921;28;20453;-61
2022/04/06 09:28:29;;;;;;;264.73;246.90;;;;;;;;;;4994841;28;20810;-61
2022/04/06 09:30:55;;;;;;;302.73;283.77;;;;;;;;;;4994362;28;20445;-61
2022/04/06 09:33:21;;;;;;;292.27;274.27;;;;;;;;;;4992691;28;20486;-61
2022/04/06 09:35:48;;;;;;;297.27;279.00;;;;;;;;;;4992844;28;20418;-61
2022/04/06 09:38:14;;;;;;;288.87;271.87;;;;;;;;;;4992768;28;20814;-60
2022/04/06 09:40:40;;;;;;;278.60;261.97;;;;;;;;;;4992506;28;20444;-60
2022/04/06 09:43:23;;;;;;;247.07;231.20;;;;;;;;;;4992762;28;20476;-60
2022/04/06 09:48:51;;;;;;;253.30;236.70;;;;;;;;;;4992604;28;20432;-60
2022/04/06 09:51:17;;;;;;;255.33;237.33;;;;;;;;;;4992378;28;20440;-60
2022/04/06 09:53:44;;;;;;;267.40;249.50;;;;;;;;;;4992615;28;20890;-60
2022/04/06 09:56:10;;;;;;;265.80;248.73;;;;;;;;;;5003315;28;20896;-59
2022/04/06 09:58:37;;;;;;;264.50;247.27;;;;;;;;;;5011971;28;20504;-60
2022/04/06 10:01:03;;;;;;;252.93;238.43;;;;;;;;;;5011620;28;20443;-60
2022/04/06 10:03:29;;;;;;;244.70;230.43;;;;;;;;;;5011783;28;20429;-59
2022/04/06 10:05:55;;;;;;;239.13;224.83;;;;;;;;;;5011539;28;21044;-60
2022/04/06 10:08:22;;;;;;;240.93;226.23;;;;;;;;;;5011862;28;20893;-60
2022/04/06 10:10:51;;;;;;;229.57;213.90;;;;;;;;;;5011245;28;20408;-59
2022/04/06 10:13:18;;;;;;;217.47;203.60;;;;;;;;;;5011806;28;20424;-60
2022/04/06 10:15:44;;;;;;;197.87;185.37;;;;;;;;;;5011749;28;20555;-60
2022/04/06 10:18:10;;;;;;;198.57;184.97;;;;;;;;;;5011331;28;20926;-62
2022/04/06 10:20:39;;;;;;;199.63;187.00;;;;;;;;;;5011561;28;20444;-61
2022/04/06 10:23:11;;;;;;;193.70;181.40;;;;;;;;;;5011575;28;20454;-58
2022/04/06 10:25:55;;;;;;;206.53;194.00;;;;;;;;;;5006871;28;20443;-58
2022/04/06 10:28:22;;;;;;;220.40;207.57;;;;;;;;;;4996877;28;20452;-60
2022/04/06 10:31:17;;;;;;;234.83;222.70;;;;;;;;;;4995445;28;20431;-61
2022/04/06 10:33:44;;;;;;;248.47;236.13;;;;;;;;;;4981804;28;20487;-61
2022/04/06 10:36:23;;;;;;;282.53;268.87;;;;;;;;;;4990504;28;20384;-61
2022/04/06 10:39:05;;;;;;;263.33;251.60;;;;;;;;;;4988528;28;20496;-61
2022/04/06 10:41:31;;;;;;;316.37;301.67;;;;;;;;;;4995425;28;20455;-61
2022/04/06 10:43:57;;;;;;;401.37;383.33;;;;;;;;;;4990519;28;20441;-61
2022/04/06 10:46:38;;;;;;;473.03;451.30;;;;;;;;;;4990906;28;20453;-60
2022/04/06 10:49:03;;;;;;;542.07;517.53;;;;;;;;;;4990611;28;20815;-61
2022/04/06 10:51:34;;;;;;;531.23;508.53;;;;;;;;;;4990845;28;20411;-58
2022/04/06 10:54:00;;;;;;;515.70;494.73;;;;;;;;;;4990413;28;20464;-59
2022/04/06 10:56:39;;;;;;;578.83;553.33;;;;;;;;;;4990707;28;20418;-59
2022/04/06 10:59:09;;;;;;;531.40;509.30;;;;;;;;;;4990358;28;20378;-60
2022/04/06 11:01:37;;;;;;;521.27;499.43;;;;;;;;;;4990574;28;20418;-61
2022/04/06 11:04:04;;;;;;;519.60;497.70;;;;;;;;;;4987959;28;20400;-61
2022/04/06 11:06:49;;;;;;;516.57;495.20;;;;;;;;;;4989044;28;20432;-62
2022/04/06 11:12:12;;;;;;;462.47;443.23;;;;;;;;;;4989396;28;20407;-60
2022/04/06 11:14:39;;;;;;;471.90;451.90;;;;;;;;;;4993867;28;20651;-61
2022/04/06 11:17:26;;;;;;;476.07;456.07;;;;;;;;;;4994130;28;20418;-59
2022/04/06 11:19:52;;;;;;;520.10;497.80;;;;;;;;;;4986779;28;20484;-61
2022/04/06 11:22:21;;;;;;;563.03;538.93;;;;;;;;;;5018145;22;20407;-62
2022/04/06 11:24:48;;;;;;;502.90;483.13;;;;;;;;;;4968217;28;20929;-63
2022/04/06 11:27:30;;;;;;;523.43;502.33;;;;;;;;;;4969371;28;20447;-58
2022/04/06 11:30:05;;;;;;;504.67;484.50;;;;;;;;;;4966082;28;20480;-63
2022/04/06 11:32:31;;;;;;;485.80;466.53;;;;;;;;;;4963607;28;20458;-62
2022/04/06 11:35:01;;;;;;;489.80;470.37;;;;;;;;;;4965539;28;20393;-63
2022/04/06 11:37:27;;;;;;;526.40;504.53;;;;;;;;;;4964936;28;20441;-63
2022/04/06 11:40:00;;;;;;;481.83;462.30;;;;;;;;;;4975099;28;20423;-63
2022/04/06 11:42:26;;;;;;;468.80;448.70;;;;;;;;;;4974972;28;20411;-64
2022/04/06 11:44:53;;;;;;;475.20;454.20;;;;;;;;;;4975253;28;20418;-62
2022/04/06 11:47:28;;;;;;;470.03;447.57;;;;;;;;;;4973967;28;20437;-62
2022/04/06 11:49:54;;;;;;;447.13;425.33;;;;;;;;;;4974252;28;20894;-62
2022/04/06 11:52:20;;;;;;;466.37;443.27;;;;;;;;;;4972061;28;20498;-62
2022/04/06 11:54:58;;;;;;;492.47;469.70;;;;;;;;;;4954490;29;20962;-62
2022/04/06 11:57:37;;;;;;;511.67;489.50;;;;;;;;;;4955559;29;20435;-62
2022/04/06 12:00:08;;;;;;;558.03;533.60;;;;;;;;;;4955182;29;20453;-62
2022/04/06 12:02:51;;;;;;;535.23;512.63;;;;;;;;;;4955511;28;20433;-62
2022/04/06 12:05:17;;;;;;;498.87;478.10;;;;;;;;;;4948370;29;20426;-62
2022/04/06 12:07:43;;;;;;;498.83;477.37;;;;;;;;;;4954959;29;20475;-62
2022/04/06 12:10:09;;;;;;;455.97;435.13;;;;;;;;;;4954124;29;20419;-62
2022/04/06 12:12:39;;;;;;;391.13;372.13;;;;;;;;;;4954260;28;20494;-62
2022/04/06 12:15:06;;;;;;;375.07;354.77;;;;;;;;;;4955485;28;20423;-62
2022/04/06 12:17:32;;;;;;;379.20;358.80;;;;;;;;;;4955481;29;20412;-62
2022/04/06 12:19:59;;;;;;;351.33;331.53;;;;;;;;;;4938484;29;20443;-62
2022/04/06 12:22:28;;;;;;;325.73;308.97;;;;;;;;;;4955010;28;20412;-62
2022/04/06 12:24:54;;;;;;;331.53;313.97;;;;;;;;;;4954033;28;20440;-62
2022/04/06 12:27:30;;;;;;;315.33;298.23;;;;;;;;;;4955108;29;20458;-62
2022/04/06 12:30:05;;;;;;;303.20;285.80;;;;;;;;;;4955196;29;20503;-62
2022/04/06 12:32:41;;;;;;;317.67;299.83;;;;;;;;;;4954934;28;20435;-62
2022/04/06 12:35:36;;;;;;;320.53;301.53;;;;;;;;;;4955276;29;20450;-62
2022/04/06 12:38:03;;;;;;;317.70;297.70;;;;;;;;;;4931322;29;20913;-62
2022/04/06 12:40:29;;;;;;;323.43;303.50;;;;;;;;;;4954780;29;20810;-62
2022/04/06 12:42:55;;;;;;;301.97;284.90;;;;;;;;;;4954896;28;20434;-62
2022/04/06 12:45:21;;;;;;;261.37;248.77;;;;;;;;;;4954941;28;20415;-62
2022/04/06 12:47:47;;;;;;;254.43;242.10;;;;;;;;;;4954850;29;20943;-62
2022/04/06 12:50:19;;;;;;;253.70;241.30;;;;;;;;;;4954543;29;20420;-62
2022/04/06 12:53:08;;;;;;;289.77;273.03;;;;;;;;;;4954928;28;20874;-62
2022/04/06 12:55:34;;;;;;;311.33;292.83;;;;;;;;;;4954685;29;20469;-62
2022/04/06 12:58:17;;;;;;;316.33;297.83;;;;;;;;;;4954632;29;20911;-62
2022/04/06 13:00:43;;;;;;;304.13;286.23;;;;;;;;;;4954390;29;20462;-62
2022/04/06 13:03:09;;;;;;;313.63;295.83;;;;;;;;;;4954472;28;20446;-62
2022/04/06 13:05:35;;;;;;;304.90;287.43;;;;;;;;;;4954544;29;20462;-62
2022/04/06 13:08:02;;;;;;;295.73;278.83;;;;;;;;;;4967508;28;20935;-62
2022/04/06 13:10:35;;;;;;;307.33;289.90;;;;;;;;;;4973459;28;20385;-62
2022/04/06 13:13:01;;;;;;;298.10;281.10;;;;;;;;;;4973648;28;20434;-63
2022/04/06 13:15:27;;;;;;;294.77;278.43;;;;;;;;;;4973916;28;21041;-62
2022/04/06 13:17:53;;;;;;;298.10;281.43;;;;;;;;;;4973593;28;20453;-63
2022/04/06 13:20:20;;;;;;;313.13;295.00;;;;;;;;;;4973243;28;20451;-62
2022/04/06 13:22:48;;;;;;;302.47;285.43;;;;;;;;;;4966116;28;20989;-62
2022/04/06 13:25:15;;;;;;;285.97;269.20;;;;;;;;;;4953963;29;20421;-62
2022/04/06 13:27:44;;;;;;;303.50;286.33;;;;;;;;;;4953896;29;20983;-62
2022/04/06 13:30:11;;;;;;;293.27;276.97;;;;;;;;;;4953759;29;20425;-62
2022/04/06 13:32:37;;;;;;;290.23;273.93;;;;;;;;;;4954088;28;20427;-60
2022/04/06 13:35:04;;;;;;;295.33;278.00;;;;;;;;;;4953793;28;20420;-62
2022/04/06 13:37:30;;;;;;;293.30;275.80;;;;;;;;;;4953916;29;20692;-60
2022/04/06 13:39:56;;;;;;;272.17;257.03;;;;;;;;;;4953880;29;20919;-60
2022/04/06 13:42:23;;;;;;;276.97;260.83;;;;;;;;;;4953621;28;20520;-60
2022/04/06 13:44:49;;;;;;;252.80;238.17;;;;;;;;;;4954056;29;20423;-61
2022/04/06 13:47:15;;;;;;;253.60;239.43;;;;;;;;;;4953862;29;20496;-62
2022/04/06 13:49:41;;;;;;;255.93;241.87;;;;;;;;;;4953802;29;20923;-60
2022/04/06 13:52:07;;;;;;;248.80;234.50;;;;;;;;;;4953983;28;20434;-61
2022/04/06 13:54:33;;;;;;;242.73;230.13;;;;;;;;;;4962119;28;20425;-61
2022/04/06 13:57:00;;;;;;;236.97;224.63;;;;;;;;;;4962893;28;20427;-61
2022/04/06 13:59:26;;;;;;;240.57;227.27;;;;;;;;;;4961073;28;20415;-61
2022/04/06 14:01:52;;;;;;;243.70;230.53;;;;;;;;;;4961923;28;20494;-61
2022/04/06 14:04:18;;;;;;;245.23;231.60;;;;;;;;;;4962616;28;20807;-61
2022/04/06 14:06:44;;;;;;;240.17;226.17;;;;;;;;;;4960716;28;20463;-61
2022/04/06 14:09:11;;;;;;;256.90;241.00;;;;;;;;;;4962128;28;20422;-62
2022/04/06 14:11:37;;;;;;;253.10;237.27;;;;;;;;;;4962013;28;20775;-61
2022/04/06 14:14:03;;;;;;;258.13;240.57;;;;;;;;;;4960609;28;20443;-61
2022/04/06 14:16:30;;;;;;;257.03;240.17;;;;;;;;;;4944962;28;20779;-61